createdAt,value
2022-12-19T00:01:38.893Z,102114.25
2022-12-19T00:04:09.130Z,102116.16
2022-12-19T00:06:37.780Z,102120.94
2022-12-19T00:09:05.392Z,102130.47
2022-12-19T00:11:33.205Z,102130.22
2022-12-19T00:14:00.815Z,102130.22
2022-12-19T00:16:29.164Z,102134.19
2022-12-19T00:18:58.761Z,102135.56
2022-12-19T00:21:30.814Z,102133.50
2022-12-19T00:24:01.598Z,102135.81
2022-12-19T00:26:31.275Z,102134.81
2022-12-19T00:29:00.072Z,102130.41
2022-12-19T00:31:30.834Z,102125.31
2022-12-19T00:33:58.327Z,102127.50
2022-12-19T00:36:27.641Z,102128.28
2022-12-19T00:38:56.287Z,102134.00
2022-12-19T00:41:25.514Z,102130.88
2022-12-19T00:43:57.255Z,102127.91
2022-12-19T00:46:24.967Z,102131.69
2022-12-19T00:48:52.354Z,102129.69
2022-12-19T00:51:22.284Z,102122.81
2022-12-19T00:53:50.358Z,102121.28
2022-12-19T00:56:21.913Z,102121.06
2022-12-19T00:58:49.767Z,102125.53
2022-12-19T01:01:47.416Z,102122.91
2022-12-19T01:04:28.153Z,102124.56
2022-12-19T01:07:01.110Z,102118.50
2022-12-19T01:09:32.638Z,102106.38
2022-12-19T01:12:18.597Z,102105.66
2022-12-19T01:14:46.192Z,102110.16
2022-12-19T01:17:13.593Z,102107.75
2022-12-19T01:19:44.359Z,102113.03
2022-12-19T01:22:13.236Z,102104.09
2022-12-19T01:24:40.774Z,102087.03
2022-12-19T01:27:08.417Z,102089.59
2022-12-19T01:29:39.966Z,102084.53
2022-12-19T01:32:20.982Z,102092.91
2022-12-19T01:34:48.708Z,102079.66
2022-12-19T01:37:17.394Z,102079.19
2022-12-19T01:39:44.955Z,102082.47
2022-12-19T01:42:21.153Z,102096.25
2022-12-19T01:45:12.164Z,102073.22
2022-12-19T01:48:00.502Z,102073.72
2022-12-19T01:50:56.038Z,102069.44
2022-12-19T01:53:59.115Z,102067.72
2022-12-19T01:56:29.290Z,102073.72
2022-12-19T01:59:05.955Z,102075.84
2022-12-19T02:01:40.035Z,102075.69
2022-12-19T02:04:22.051Z,102071.66
2022-12-19T02:06:49.440Z,102076.56
2022-12-19T02:09:16.798Z,102076.25
2022-12-19T02:11:44.489Z,102073.91
2022-12-19T02:14:12.238Z,102077.47
2022-12-19T02:17:15.169Z,102068.59
2022-12-19T02:20:10.972Z,102074.28
2022-12-19T02:22:48.012Z,102076.84
2022-12-19T02:25:40.561Z,102075.50
2022-12-19T02:28:53.133Z,102075.22
2022-12-19T02:31:35.135Z,102076.22
2022-12-19T02:34:29.794Z,102077.03
2022-12-19T02:37:03.600Z,102085.44
2022-12-19T02:39:50.966Z,102082.22
2022-12-19T02:42:23.431Z,102081.31
2022-12-19T02:44:53.058Z,102099.31
2022-12-19T02:47:21.348Z,102089.22
2022-12-19T02:49:48.715Z,102080.84
2022-12-19T02:52:19.392Z,102078.31
2022-12-19T02:54:58.027Z,102075.06
2022-12-19T02:57:28.484Z,102078.59
2022-12-19T03:00:13.441Z,102078.25
2022-12-19T03:03:11.765Z,102069.12
2022-12-19T03:06:11.403Z,102076.72
2022-12-19T03:08:43.121Z,102070.22
2022-12-19T03:11:13.332Z,102062.09
2022-12-19T03:13:49.714Z,102063.59
2022-12-19T03:16:17.425Z,102068.34
2022-12-19T03:18:44.759Z,102057.81
2022-12-19T03:21:32.305Z,102057.56
2022-12-19T03:23:59.913Z,102056.50
2022-12-19T03:26:33.961Z,102050.25
2022-12-19T03:29:05.913Z,102042.59
2022-12-19T03:31:33.498Z,102061.34
2022-12-19T03:34:10.622Z,102049.59
2022-12-19T03:36:45.235Z,102041.84
2022-12-19T03:39:12.932Z,102033.13
2022-12-19T03:41:59.392Z,102037.16
2022-12-19T03:44:27.754Z,102034.59
2022-12-19T03:46:58.999Z,102035.72
2022-12-19T03:49:26.847Z,102042.16
2022-12-19T03:52:05.884Z,102042.78
2022-12-19T03:54:36.609Z,102040.75
2022-12-19T03:57:21.262Z,102041.88
2022-12-19T03:59:54.646Z,102041.28
2022-12-19T04:02:22.190Z,102036.06
2022-12-19T04:05:00.857Z,102045.19
2022-12-19T04:07:28.321Z,102043.22
2022-12-19T04:09:56.155Z,102042.44
2022-12-19T04:12:28.862Z,102037.00
2022-12-19T04:14:56.451Z,102038.72
2022-12-19T04:17:39.397Z,102045.47
2022-12-19T04:20:17.798Z,102044.03
2022-12-19T04:22:52.912Z,102052.47
2022-12-19T04:25:29.204Z,102050.09
2022-12-19T04:27:59.547Z,102049.84
2022-12-19T04:30:27.699Z,102048.03
2022-12-19T04:32:55.078Z,102050.34
2022-12-19T04:35:22.430Z,102048.72
2022-12-19T04:37:50.004Z,102048.56
2022-12-19T04:40:17.396Z,102041.44
2022-12-19T04:42:45.207Z,102033.78
2022-12-19T04:45:12.828Z,102043.28
2022-12-19T04:47:40.458Z,102043.94
2022-12-19T04:50:08.097Z,102041.34
2022-12-19T04:52:35.744Z,102030.59
2022-12-19T04:55:03.079Z,102032.75
2022-12-19T04:57:30.880Z,102038.31
2022-12-19T04:59:58.481Z,102048.09
2022-12-19T05:02:26.483Z,102050.91
2022-12-19T05:04:55.081Z,102053.09
2022-12-19T05:07:22.766Z,102055.00
2022-12-19T05:09:50.089Z,102045.16
2022-12-19T05:12:17.459Z,102047.59
2022-12-19T05:14:45.094Z,102049.66
2022-12-19T05:17:12.453Z,102050.66
2022-12-19T05:19:39.788Z,102051.28
2022-12-19T05:22:07.452Z,102057.50
2022-12-19T05:24:34.819Z,102061.78
2022-12-19T05:27:02.217Z,102057.66
2022-12-19T05:29:29.984Z,102051.47
2022-12-19T05:31:57.743Z,102046.75
2022-12-19T05:34:26.431Z,102040.66
2022-12-19T05:36:54.028Z,102035.88
2022-12-19T05:39:21.337Z,102040.94
2022-12-19T05:41:49.296Z,102036.87
2022-12-19T05:44:17.263Z,102026.94
2022-12-19T05:46:45.143Z,102037.69
2022-12-19T05:49:12.569Z,102040.34
2022-12-19T05:51:40.623Z,102047.91
2022-12-19T05:54:07.961Z,102032.59
2022-12-19T05:56:35.399Z,102037.13
2022-12-19T05:59:03.038Z,102035.62
2022-12-19T06:01:30.653Z,102036.94
2022-12-19T06:03:58.310Z,102026.31
2022-12-19T06:06:26.307Z,102034.84
2022-12-19T06:08:57.166Z,102045.47
2022-12-19T06:11:24.872Z,102047.59
2022-12-19T06:13:52.266Z,102053.16
2022-12-19T06:16:21.140Z,102048.84
2022-12-19T06:18:48.800Z,102056.06
2022-12-19T06:21:17.881Z,102048.94
2022-12-19T06:23:45.254Z,102054.59
2022-12-19T06:26:18.740Z,102051.88
2022-12-19T06:28:50.417Z,102060.69
2022-12-19T06:31:18.709Z,102057.97
2022-12-19T06:33:46.218Z,102056.41
2022-12-19T06:36:21.693Z,102057.06
2022-12-19T06:38:49.507Z,102060.37
2022-12-19T06:41:35.814Z,102062.12
2022-12-19T06:44:05.111Z,102065.19
2022-12-19T06:46:32.770Z,102059.88
2022-12-19T06:49:00.217Z,102061.59
2022-12-19T06:51:28.189Z,102054.09
2022-12-19T06:53:58.729Z,102047.00
2022-12-19T06:56:26.327Z,102048.13
2022-12-19T06:58:54.047Z,102050.47
2022-12-19T07:01:52.712Z,102052.97
2022-12-19T07:04:40.953Z,102056.28
2022-12-19T07:07:08.362Z,102056.34
2022-12-19T07:09:36.143Z,102067.72
2022-12-19T07:12:06.285Z,102070.34
2022-12-19T07:14:33.802Z,102071.69
2022-12-19T07:17:01.424Z,102077.59
2022-12-19T07:19:28.821Z,102072.84
2022-12-19T07:21:56.174Z,102086.38
2022-12-19T07:24:23.781Z,102063.22
2022-12-19T07:26:51.233Z,102065.53
2022-12-19T07:29:18.801Z,102065.59
2022-12-19T07:31:46.443Z,102057.56
2022-12-19T07:34:13.877Z,102061.22
2022-12-19T07:36:41.260Z,102061.69
2022-12-19T07:39:08.886Z,102061.75
2022-12-19T07:41:37.524Z,102066.53
2022-12-19T07:44:06.180Z,102057.03
2022-12-19T07:46:34.063Z,102062.44
2022-12-19T07:49:01.870Z,102060.37
2022-12-19T07:51:29.347Z,102060.91
2022-12-19T07:53:56.987Z,102062.12
2022-12-19T07:56:24.370Z,102072.72
2022-12-19T07:58:52.356Z,102075.16
2022-12-19T08:01:20.451Z,102081.09
2022-12-19T08:03:48.126Z,102070.84
2022-12-19T08:06:15.479Z,102075.28
2022-12-19T08:08:42.842Z,102083.56
2022-12-19T08:11:17.532Z,102088.63
2022-12-19T08:13:46.874Z,102095.94
2022-12-19T08:16:15.091Z,102095.06
2022-12-19T08:18:42.566Z,102103.72
2022-12-19T08:21:10.361Z,102106.84
2022-12-19T08:23:38.845Z,102108.41
2022-12-19T08:26:11.368Z,102098.97
2022-12-19T08:28:39.015Z,102096.06
2022-12-19T08:31:07.715Z,102082.38
2022-12-19T08:33:35.852Z,102092.16
2022-12-19T08:36:08.377Z,102095.25
2022-12-19T08:38:36.250Z,102095.72
2022-12-19T08:41:04.248Z,102077.84
2022-12-19T08:43:31.984Z,102081.72
2022-12-19T08:45:59.403Z,102067.75
2022-12-19T08:48:27.194Z,102053.34
2022-12-19T08:50:56.837Z,102072.47
2022-12-19T08:53:26.672Z,102061.50
2022-12-19T08:56:07.992Z,102071.53
2022-12-19T08:58:35.376Z,102077.50
2022-12-19T09:01:09.084Z,102094.87
2022-12-19T09:03:50.224Z,102091.34
2022-12-19T09:06:24.340Z,102078.94
2022-12-19T09:08:51.831Z,102079.97
2022-12-19T09:11:21.149Z,102068.53
2022-12-19T09:13:49.026Z,102060.34
2022-12-19T09:16:18.821Z,102043.59
2022-12-19T09:18:48.796Z,102052.62
2022-12-19T09:21:20.660Z,102062.66
2022-12-19T09:23:49.737Z,102077.22
2022-12-19T09:26:17.658Z,102085.38
2022-12-19T09:28:45.852Z,102082.56
2022-12-19T09:31:18.061Z,102074.34
2022-12-19T09:33:46.711Z,102076.63
2022-12-19T09:36:15.624Z,102062.59
2022-12-19T09:38:43.265Z,102050.94
2022-12-19T09:41:13.607Z,102048.13
2022-12-19T09:44:05.379Z,102051.81
2022-12-19T09:46:42.599Z,102050.75
2022-12-19T09:49:13.180Z,102040.91
2022-12-19T09:51:46.003Z,102054.38
2022-12-19T09:54:19.023Z,102048.28
2022-12-19T09:56:46.941Z,102041.84
2022-12-19T09:59:20.156Z,102034.16
2022-12-19T10:01:56.305Z,102030.41
2022-12-19T10:04:24.796Z,102015.00
2022-12-19T10:07:18.228Z,102025.06
2022-12-19T10:11:54.812Z,102019.22
2022-12-19T10:12:58.506Z,102006.28
2022-12-19T10:16:01.545Z,102004.09
2022-12-19T10:18:41.553Z,102004.44
2022-12-19T10:21:36.969Z,102016.03
2022-12-19T10:24:31.718Z,102028.28
2022-12-19T10:27:24.229Z,102028.44
2022-12-19T10:29:51.619Z,102021.88
2022-12-19T10:32:40.343Z,102001.75
2022-12-19T10:35:15.977Z,102010.13
2022-12-19T10:38:09.074Z,102004.16
2022-12-19T10:40:44.085Z,101991.28
2022-12-19T10:43:22.954Z,101987.38
2022-12-19T10:45:59.470Z,101987.84
2022-12-19T10:48:30.582Z,101986.75
2022-12-19T10:51:06.899Z,101980.66
2022-12-19T10:53:34.781Z,101979.31
2022-12-19T10:56:10.199Z,101980.81
2022-12-19T10:58:37.871Z,101978.44
2022-12-19T11:01:15.501Z,101984.81
2022-12-19T11:03:46.327Z,101977.72
2022-12-19T11:07:04.676Z,101982.87
2022-12-19T11:09:39.309Z,101977.25
2022-12-19T11:15:21.804Z,101968.47
2022-12-19T11:21:27.050Z,101964.75
2022-12-19T11:29:17.148Z,101968.22
2022-12-19T11:29:18.418Z,101967.53
2022-12-19T11:30:35.539Z,101956.69
2022-12-19T11:30:38.648Z,101973.22
2022-12-19T11:32:42.067Z,101954.28
2022-12-19T11:35:36.542Z,101961.28
2022-12-19T11:38:06.106Z,101946.69
2022-12-19T11:40:49.268Z,101948.84
2022-12-19T11:43:48.277Z,101958.78
2022-12-19T11:46:34.404Z,101933.19
2022-12-19T11:49:04.195Z,101927.78
2022-12-19T11:52:04.033Z,101928.19
2022-12-19T11:54:37.668Z,101926.69
2022-12-19T11:57:05.116Z,101911.19
2022-12-19T11:59:35.440Z,101907.81
2022-12-19T12:02:05.852Z,101913.84
2022-12-19T12:04:42.816Z,101908.28
2022-12-19T12:07:40.697Z,101901.88
2022-12-19T12:14:12.080Z,101925.75
2022-12-19T12:18:50.073Z,101913.75
2022-12-19T12:29:48.715Z,101919.03
2022-12-19T12:31:28.798Z,101908.69
2022-12-19T12:31:38.743Z,101897.97
2022-12-19T12:31:39.144Z,101895.88
2022-12-19T12:32:05.780Z,101904.09
2022-12-19T12:35:46.563Z,101898.44
2022-12-19T12:38:27.304Z,101892.03
2022-12-19T12:41:10.104Z,101891.16
2022-12-19T12:44:03.690Z,101907.69
2022-12-19T12:46:34.782Z,101907.31
2022-12-19T12:49:04.184Z,101895.81
2022-12-19T12:51:35.170Z,101904.47
2022-12-19T12:54:07.992Z,101897.34
2022-12-19T12:56:35.917Z,101894.37
2022-12-19T12:59:19.140Z,101882.13
2022-12-19T13:01:50.992Z,101885.69
2022-12-19T13:04:21.376Z,101878.09
2022-12-19T13:06:51.862Z,101873.38
2022-12-19T13:09:24.954Z,101872.66
2022-12-19T13:12:42.253Z,101872.81
2022-12-19T13:15:22.539Z,101876.69
2022-12-19T13:17:50.258Z,101870.41
2022-12-19T13:20:17.506Z,101869.22
2022-12-19T13:22:46.079Z,101865.44
2022-12-19T13:25:37.103Z,101864.72
2022-12-19T13:28:04.276Z,101871.81
2022-12-19T13:30:32.726Z,101866.22
2022-12-19T13:33:20.029Z,101858.69
2022-12-19T13:39:27.053Z,101862.44
2022-12-19T13:40:02.200Z,101848.25
2022-12-19T13:41:51.084Z,101847.88
2022-12-19T13:44:20.199Z,101840.22
2022-12-19T13:46:47.885Z,101830.34
2022-12-19T13:49:18.994Z,101834.75
2022-12-19T13:51:52.457Z,101838.84
2022-12-19T13:54:32.112Z,101857.81
2022-12-19T13:57:00.615Z,101858.28
2022-12-19T13:59:35.084Z,101848.72
2022-12-19T14:02:16.014Z,101860.19
2022-12-19T14:04:43.999Z,101849.44
2022-12-19T14:07:42.173Z,101842.75
2022-12-19T14:11:40.285Z,101844.34
2022-12-19T14:14:00.503Z,101839.06
2022-12-19T14:16:20.401Z,101837.84
2022-12-19T14:19:03.656Z,101844.88
2022-12-19T14:22:04.209Z,101842.53
2022-12-19T14:24:20.870Z,101838.06
2022-12-19T14:28:18.708Z,101837.97
2022-12-19T14:30:26.803Z,101834.38
2022-12-19T14:33:46.718Z,101839.53
2022-12-19T14:36:07.090Z,101829.28
2022-12-19T14:39:27.649Z,101836.63
2022-12-19T14:41:45.844Z,101830.56
2022-12-19T14:53:51.675Z,101835.84
2022-12-19T14:54:02.164Z,101838.62
2022-12-19T14:54:03.656Z,101837.09
2022-12-19T14:54:22.927Z,101833.53
2022-12-19T14:56:13.690Z,101840.88
2022-12-19T14:58:55.668Z,101843.31
2022-12-19T15:01:30.535Z,101858.06
2022-12-19T15:04:48.011Z,101846.47
2022-12-19T15:07:07.429Z,101843.16
2022-12-19T15:11:08.383Z,101845.38
2022-12-19T15:14:52.402Z,101855.16
2022-12-19T15:15:46.369Z,101854.25
2022-12-19T15:18:34.293Z,101845.81
2022-12-19T15:21:04.073Z,101854.84
2022-12-19T15:23:31.789Z,101841.56
2022-12-19T15:26:06.173Z,101849.28
2022-12-19T15:28:40.831Z,101844.00
2022-12-19T15:31:35.092Z,101854.94
2022-12-19T15:34:34.938Z,101857.94
2022-12-19T15:37:04.461Z,101860.41
2022-12-19T15:39:32.169Z,101869.22
2022-12-19T15:41:59.800Z,101865.56
2022-12-19T15:44:37.936Z,101870.97
2022-12-19T15:47:07.381Z,101862.16
2022-12-19T15:49:35.276Z,101857.94
2022-12-19T15:52:03.013Z,101862.22
2022-12-19T15:57:35.282Z,101857.69
2022-12-19T16:00:07.515Z,101850.19
2022-12-19T16:03:13.352Z,101831.62
2022-12-19T16:05:23.637Z,101828.50
2022-12-19T16:07:51.446Z,101842.44
2022-12-19T16:10:18.836Z,101850.25
2022-12-19T16:12:51.175Z,101846.06
2022-12-19T16:15:26.219Z,101847.72
2022-12-19T16:17:53.985Z,101840.88
2022-12-19T16:20:23.558Z,101842.12
2022-12-19T16:22:51.146Z,101826.66
2022-12-19T16:25:18.853Z,101829.00
2022-12-19T16:27:50.364Z,101831.38
2022-12-19T16:30:22.901Z,101831.75
2022-12-19T16:32:50.552Z,101827.28
2022-12-19T16:35:34.357Z,101826.75
2022-12-19T16:38:07.962Z,101823.37
2022-12-19T16:40:35.291Z,101812.09
2022-12-19T16:43:10.668Z,101816.53
2022-12-19T16:45:38.282Z,101825.41
2022-12-19T16:48:18.201Z,101815.69
2022-12-19T16:50:45.931Z,101809.47
2022-12-19T16:53:13.341Z,101804.62
2022-12-19T16:55:40.898Z,101799.50
2022-12-19T16:58:16.163Z,101804.44
2022-12-19T17:00:43.645Z,101799.13
2022-12-19T17:03:33.526Z,101806.22
2022-12-19T17:06:01.070Z,101806.47
2022-12-19T17:08:28.720Z,101818.28
2022-12-19T17:10:56.056Z,101816.25
2022-12-19T17:13:23.588Z,101826.59
2022-12-19T17:15:56.301Z,101825.28
2022-12-19T17:18:30.032Z,101814.59
2022-12-19T17:20:57.717Z,101814.16
2022-12-19T17:23:25.211Z,101817.25
2022-12-19T17:25:54.497Z,101816.59
2022-12-19T17:28:22.221Z,101814.03
2022-12-19T17:30:54.608Z,101819.56
2022-12-19T17:33:22.319Z,101825.78
2022-12-19T17:35:49.657Z,101828.41
2022-12-19T17:38:17.167Z,101823.03
2022-12-19T17:40:44.891Z,101829.34
2022-12-19T17:43:12.437Z,101828.16
2022-12-19T17:45:40.044Z,101823.50
2022-12-19T17:48:14.616Z,101824.41
2022-12-19T17:50:41.978Z,101832.03
2022-12-19T17:53:12.948Z,101835.50
2022-12-19T17:55:40.443Z,101828.28
2022-12-19T17:58:09.674Z,101835.88
2022-12-19T18:00:37.459Z,101823.03
2022-12-19T18:03:15.636Z,101826.03
2022-12-19T18:05:43.151Z,101820.28
2022-12-19T18:08:21.649Z,101831.91
2022-12-19T18:10:49.006Z,101836.28
2022-12-19T18:13:16.633Z,101838.53
2022-12-19T18:15:44.017Z,101845.44
2022-12-19T18:18:20.493Z,101829.28
2022-12-19T18:20:47.952Z,101831.56
2022-12-19T18:23:20.567Z,101838.78
2022-12-19T18:25:48.195Z,101831.13
2022-12-19T18:28:16.024Z,101829.16
2022-12-19T18:30:44.158Z,101832.59
2022-12-19T18:33:16.642Z,101829.78
2022-12-19T18:35:47.495Z,101820.88
2022-12-19T18:38:22.313Z,101822.38
2022-12-19T18:40:51.827Z,101817.75
2022-12-19T18:43:19.628Z,101805.66
2022-12-19T18:45:48.508Z,101807.69
2022-12-19T18:48:27.015Z,101803.56
2022-12-19T18:50:55.060Z,101804.84
2022-12-19T18:53:26.481Z,101789.19
2022-12-19T18:55:57.572Z,101784.78
2022-12-19T18:58:25.266Z,101788.16
2022-12-19T19:00:58.877Z,101780.22
2022-12-19T19:03:31.890Z,101776.72
2022-12-19T19:05:59.363Z,101776.91
2022-12-19T19:08:28.666Z,101775.75
2022-12-19T19:10:56.574Z,101771.22
2022-12-19T19:13:25.434Z,101770.19
2022-12-19T19:16:01.529Z,101769.59
2022-12-19T19:18:30.848Z,101779.63
2022-12-19T19:21:01.324Z,101776.69
2022-12-19T19:23:32.374Z,101780.72
2022-12-19T19:25:59.985Z,101783.03
2022-12-19T19:28:27.346Z,101769.63
2022-12-19T19:30:54.778Z,101770.16
2022-12-19T19:33:28.407Z,101769.81
2022-12-19T19:35:57.084Z,101769.34
2022-12-19T19:38:24.747Z,101769.66
2022-12-19T19:40:52.068Z,101769.19
2022-12-19T19:43:19.456Z,101767.50
2022-12-19T19:45:47.176Z,101755.34
2022-12-19T19:48:14.705Z,101746.91
2022-12-19T19:50:42.156Z,101753.94
2022-12-19T19:53:09.772Z,101760.13
2022-12-19T19:55:37.210Z,101754.06
2022-12-19T19:58:05.245Z,101766.59
2022-12-19T20:00:32.952Z,101757.56
2022-12-19T20:03:06.242Z,101758.69
2022-12-19T20:05:34.170Z,101756.09
2022-12-19T20:08:01.766Z,101756.56
2022-12-19T20:10:29.137Z,101752.72
2022-12-19T20:12:56.534Z,101762.22
2022-12-19T20:15:24.197Z,101763.59
2022-12-19T20:17:52.932Z,101763.72
2022-12-19T20:20:20.313Z,101762.63
2022-12-19T20:22:48.051Z,101770.44
2022-12-19T20:25:15.461Z,101779.47
2022-12-19T20:27:42.856Z,101769.63
2022-12-19T20:30:10.884Z,101759.63
2022-12-19T20:32:38.228Z,101763.94
2022-12-19T20:35:12.409Z,101761.84
2022-12-19T20:37:42.488Z,101750.09
2022-12-19T20:40:10.401Z,101756.66
2022-12-19T20:42:37.715Z,101752.16
2022-12-19T20:45:05.746Z,101738.66
2022-12-19T20:47:33.324Z,101732.94
2022-12-19T20:50:00.672Z,101733.59
2022-12-19T20:52:28.363Z,101732.72
2022-12-19T20:54:55.773Z,101739.56
2022-12-19T20:57:23.294Z,101744.06
2022-12-19T20:59:50.991Z,101750.91
2022-12-19T21:02:18.418Z,101750.12
2022-12-19T21:04:45.881Z,101737.28
2022-12-19T21:07:13.492Z,101743.88
2022-12-19T21:09:44.823Z,101744.25
2022-12-19T21:12:12.399Z,101741.81
2022-12-19T21:14:40.051Z,101730.19
2022-12-19T21:17:07.548Z,101736.69
2022-12-19T21:19:34.908Z,101741.44
2022-12-19T21:22:02.720Z,101731.63
2022-12-19T21:24:30.289Z,101738.53
2022-12-19T21:26:58.321Z,101733.03
2022-12-19T21:29:26.188Z,101737.22
2022-12-19T21:31:53.587Z,101732.25
2022-12-19T21:34:20.909Z,101730.72
2022-12-19T21:36:48.508Z,101728.69
2022-12-19T21:39:16.021Z,101742.47
2022-12-19T21:41:43.368Z,101732.94
2022-12-19T21:44:11.456Z,101728.50
2022-12-19T21:46:38.941Z,101723.09
2022-12-19T21:49:08.383Z,101732.44
2022-12-19T21:51:35.998Z,101734.13
2022-12-19T21:54:04.091Z,101729.72
2022-12-19T21:56:34.250Z,101724.78
2022-12-19T21:59:06.415Z,101729.25
2022-12-19T22:01:34.164Z,101730.31
2022-12-19T22:04:09.055Z,101735.00
2022-12-19T22:06:39.634Z,101735.56
2022-12-19T22:09:08.426Z,101731.03
2022-12-19T22:11:35.917Z,101723.56
2022-12-19T22:14:05.100Z,101723.84
2022-12-19T22:16:33.204Z,101712.56
2022-12-19T22:19:00.732Z,101716.06
2022-12-19T22:21:28.110Z,101716.75
2022-12-19T22:23:59.276Z,101712.59
2022-12-19T22:26:27.328Z,101712.81
2022-12-19T22:28:55.391Z,101699.19
2022-12-19T22:31:23.688Z,101693.41
2022-12-19T22:33:55.337Z,101696.19
2022-12-19T22:36:28.037Z,101689.38
2022-12-19T22:38:56.882Z,101686.03
2022-12-19T22:41:24.605Z,101692.38
2022-12-19T22:43:52.380Z,101695.13
2022-12-19T22:46:20.720Z,101674.97
2022-12-19T22:48:48.869Z,101658.69
2022-12-19T22:51:17.020Z,101651.06
2022-12-19T22:53:44.429Z,101659.75
2022-12-19T22:56:14.405Z,101656.25
2022-12-19T22:58:43.113Z,101649.00
2022-12-19T23:01:23.573Z,101642.38
2022-12-19T23:03:52.564Z,101639.66
2022-12-19T23:06:20.129Z,101644.88
2022-12-19T23:08:47.613Z,101644.59
2022-12-19T23:11:17.095Z,101644.28
2022-12-19T23:13:45.110Z,101654.03
2022-12-19T23:16:13.277Z,101652.78
2022-12-19T23:18:41.001Z,101653.63
2022-12-19T23:21:13.829Z,101647.94
2022-12-19T23:23:42.659Z,101645.00
2022-12-19T23:26:15.741Z,101633.75
2022-12-19T23:28:44.289Z,101633.47
2022-12-19T23:31:13.064Z,101640.66
2022-12-19T23:33:40.652Z,101644.63
2022-12-19T23:36:08.717Z,101641.25
2022-12-19T23:38:36.077Z,101645.62
2022-12-19T23:41:04.751Z,101641.91
2022-12-19T23:43:33.215Z,101643.81
2022-12-19T23:46:05.549Z,101640.34
2022-12-19T23:48:33.354Z,101627.72
2022-12-19T23:51:01.770Z,101618.91
2022-12-19T23:53:29.310Z,101615.03
2022-12-19T23:55:56.982Z,101613.37
2022-12-19T23:58:25.100Z,101612.84
